createdAt,value
2019-05-13T00:00:53.855Z,50.94
2019-05-13T00:03:23.966Z,50.96
2019-05-13T00:05:53.605Z,50.90
2019-05-13T00:08:24.799Z,51.31
2019-05-13T00:10:54.170Z,51.09
2019-05-13T00:13:23.707Z,51.09
2019-05-13T00:15:54.199Z,50.98
2019-05-13T00:18:23.573Z,50.90
2019-05-13T00:20:54.039Z,50.98
2019-05-13T00:23:23.362Z,50.68
2019-05-13T00:25:51.773Z,51.10
2019-05-13T00:28:20.187Z,50.60
2019-05-13T00:30:48.573Z,50.79
2019-05-13T00:33:16.992Z,50.84
2019-05-13T00:35:45.379Z,51.03
2019-05-13T00:38:14.304Z,51.07
2019-05-13T00:40:44.280Z,51.32
2019-05-13T00:43:14.321Z,51.38
2019-05-13T00:45:44.335Z,51.30
2019-05-13T00:48:14.298Z,51.11
2019-05-13T00:50:44.342Z,51.23
2019-05-13T00:53:13.437Z,51.05
2019-05-13T00:55:44.208Z,51.31
2019-05-13T00:58:13.987Z,51.34
2019-05-13T01:00:44.350Z,51.19
2019-05-13T01:03:14.162Z,51.18
2019-05-13T01:05:44.522Z,51.05
2019-05-13T01:08:14.569Z,51.28
2019-05-13T01:10:45.214Z,51.43
2019-05-13T01:13:13.760Z,51.03
2019-05-13T01:15:44.363Z,51.02
2019-05-13T01:18:14.296Z,51.17
2019-05-13T01:20:43.714Z,51.18
2019-05-13T01:23:14.236Z,51.12
2019-05-13T01:25:44.477Z,51.06
2019-05-13T01:28:13.470Z,51.12
2019-05-13T01:30:43.825Z,51.31
2019-05-13T01:33:14.510Z,51.51
2019-05-13T01:35:44.499Z,51.58
2019-05-13T01:38:13.501Z,51.21
2019-05-13T01:40:44.053Z,51.44
2019-05-13T01:43:14.479Z,51.61
2019-05-13T01:45:44.154Z,51.98
2019-05-13T01:48:14.103Z,51.63
2019-05-13T01:50:48.727Z,51.80
2019-05-13T01:53:17.241Z,51.79
2019-05-13T01:55:45.648Z,51.70
2019-05-13T01:58:14.764Z,52.00
2019-05-13T02:00:44.321Z,51.97
2019-05-13T02:03:14.546Z,51.92
2019-05-13T02:05:44.410Z,52.14
2019-05-13T02:08:14.394Z,52.28
2019-05-13T02:10:50.361Z,52.49
2019-05-13T02:13:18.744Z,52.60
2019-05-13T02:15:47.134Z,52.59
2019-05-13T02:18:15.536Z,52.69
2019-05-13T02:20:44.439Z,52.72
2019-05-13T02:23:14.535Z,52.82
2019-05-13T02:25:43.593Z,52.90
2019-05-13T02:28:13.899Z,53.12
2019-05-13T02:30:45.707Z,53.01
2019-05-13T02:33:14.242Z,53.22
2019-05-13T02:35:43.425Z,53.34
2019-05-13T02:38:23.958Z,53.37
2019-05-13T02:40:44.952Z,53.53
2019-05-13T02:43:13.799Z,53.53
2019-05-13T02:45:43.127Z,53.40
2019-05-13T02:48:12.620Z,53.47
2019-05-13T02:50:44.077Z,53.56
2019-05-13T02:53:13.704Z,53.70
2019-05-13T02:55:43.641Z,53.63
2019-05-13T02:58:12.455Z,53.60
2019-05-13T03:00:44.127Z,53.81
2019-05-13T03:03:12.881Z,53.92
2019-05-13T03:05:42.857Z,54.11
2019-05-13T03:08:12.778Z,54.41
2019-05-13T03:10:43.374Z,54.32
2019-05-13T03:13:13.567Z,54.69
2019-05-13T03:15:52.168Z,54.49
2019-05-13T03:18:22.274Z,54.64
2019-05-13T03:20:52.637Z,54.93
2019-05-13T03:23:22.489Z,54.82
2019-05-13T03:25:53.296Z,54.89
2019-05-13T03:28:22.372Z,54.90
2019-05-13T03:30:56.213Z,55.06
2019-05-13T03:33:27.919Z,55.01
2019-05-13T03:35:55.926Z,55.25
2019-05-13T03:38:23.754Z,55.44
2019-05-13T03:40:54.397Z,54.85
2019-05-13T03:43:24.559Z,55.20
2019-05-13T03:45:54.375Z,55.20
2019-05-13T03:48:23.729Z,55.37
2019-05-13T03:50:53.513Z,55.47
2019-05-13T03:53:23.418Z,55.31
2019-05-13T03:55:54.107Z,55.30
2019-05-13T03:58:23.830Z,55.18
2019-05-13T04:00:52.624Z,55.22
2019-05-13T04:03:22.715Z,55.56
2019-05-13T04:05:52.661Z,55.47
2019-05-13T04:08:22.740Z,55.50
2019-05-13T04:10:52.626Z,55.49
2019-05-13T04:13:27.596Z,55.40
2019-05-13T04:15:56.954Z,55.40
2019-05-13T04:18:25.339Z,55.34
2019-05-13T04:20:54.780Z,55.38
2019-05-13T04:23:24.177Z,55.58
2019-05-13T04:25:53.616Z,55.46
2019-05-13T04:28:22.441Z,55.31
2019-05-13T04:30:52.556Z,55.43
2019-05-13T04:33:23.044Z,54.99
2019-05-13T04:35:53.008Z,55.12
2019-05-13T04:38:22.686Z,55.39
2019-05-13T04:40:52.898Z,55.11
2019-05-13T04:43:23.567Z,55.02
2019-05-13T04:45:52.601Z,55.27
2019-05-13T04:48:22.887Z,54.98
2019-05-13T04:50:53.342Z,54.79
2019-05-13T04:53:22.859Z,54.86
2019-05-13T04:55:52.900Z,54.49
2019-05-13T04:58:24.309Z,54.80
2019-05-13T05:01:23.485Z,54.90
2019-05-13T05:04:11.681Z,55.02
2019-05-13T05:06:42.390Z,54.77
2019-05-13T05:09:28.262Z,54.65
2019-05-13T05:12:12.427Z,54.80
2019-05-13T05:15:03.006Z,54.89
2019-05-13T05:17:42.905Z,54.90
2019-05-13T05:20:25.380Z,54.64
2019-05-13T05:23:17.874Z,54.49
2019-05-13T05:26:15.045Z,54.17
2019-05-13T05:29:21.634Z,54.19
2019-05-13T05:32:07.394Z,53.96
2019-05-13T05:35:07.679Z,53.72
2019-05-13T05:37:52.230Z,53.78
2019-05-13T05:40:31.385Z,53.75
2019-05-13T05:42:56.459Z,54.14
2019-05-13T05:45:24.912Z,53.54
2019-05-13T05:47:55.531Z,53.91
2019-05-13T05:50:23.946Z,53.51
2019-05-13T05:52:54.386Z,53.53
2019-05-13T05:55:25.879Z,53.04
2019-05-13T05:57:56.198Z,52.51
2019-05-13T06:00:24.763Z,52.25
2019-05-13T06:02:56.215Z,52.48
2019-05-13T06:05:26.356Z,52.11
2019-05-13T06:07:54.750Z,51.58
2019-05-13T06:10:23.213Z,52.07
2019-05-13T06:12:52.391Z,52.54
2019-05-13T06:15:22.548Z,52.31
2019-05-13T06:17:51.800Z,51.74
2019-05-13T06:20:21.123Z,51.99
2019-05-13T06:22:51.572Z,52.17
2019-05-13T06:25:23.305Z,51.88
2019-05-13T06:27:51.249Z,51.45
2019-05-13T06:30:21.721Z,51.66
2019-05-13T06:32:52.324Z,51.34
2019-05-13T06:35:21.808Z,50.72
2019-05-13T06:37:52.016Z,51.49
2019-05-13T06:40:21.414Z,50.62
2019-05-13T06:42:52.102Z,50.41
2019-05-13T06:45:21.610Z,48.41
2019-05-13T06:47:52.140Z,48.16
2019-05-13T06:50:21.919Z,47.65
2019-05-13T06:52:51.393Z,47.87
2019-05-13T06:55:21.291Z,46.43
2019-05-13T06:57:51.721Z,43.92
2019-05-13T07:00:21.566Z,44.26
2019-05-13T07:02:51.733Z,44.85
2019-05-13T07:05:22.659Z,44.59
2019-05-13T07:07:51.296Z,45.38
2019-05-13T07:10:21.693Z,45.18
2019-05-13T07:12:51.889Z,44.69
2019-05-13T07:15:22.409Z,45.27
2019-05-13T07:17:51.989Z,44.99
2019-05-13T07:20:22.715Z,42.52
2019-05-13T07:22:53.166Z,42.24
2019-05-13T07:25:22.205Z,42.50
2019-05-13T07:27:51.507Z,43.84
2019-05-13T07:30:23.091Z,43.33
2019-05-13T07:32:52.419Z,43.13
2019-05-13T07:35:22.827Z,41.41
2019-05-13T07:37:51.812Z,41.41
2019-05-13T07:40:22.220Z,41.34
2019-05-13T07:42:52.222Z,42.47
2019-05-13T07:45:21.335Z,43.11
2019-05-13T07:47:51.916Z,41.79
2019-05-13T07:50:21.831Z,41.50
2019-05-13T07:52:51.529Z,41.35
2019-05-13T07:55:22.126Z,41.54
2019-05-13T07:57:51.533Z,41.80
2019-05-13T08:00:21.767Z,42.45
2019-05-13T08:02:52.299Z,42.54
2019-05-13T08:05:22.369Z,42.63
2019-05-13T08:07:51.520Z,42.95
2019-05-13T08:10:21.933Z,43.60
2019-05-13T08:12:51.645Z,42.86
2019-05-13T08:15:22.336Z,43.17
2019-05-13T08:17:52.452Z,43.45
2019-05-13T08:20:22.136Z,42.08
2019-05-13T08:22:52.018Z,41.96
2019-05-13T08:25:22.293Z,41.87
2019-05-13T08:27:51.428Z,40.51
2019-05-13T08:30:22.534Z,39.96
2019-05-13T08:32:52.356Z,39.92
2019-05-13T08:35:22.435Z,39.70
2019-05-13T08:37:52.052Z,38.40
2019-05-13T08:40:23.274Z,37.72
2019-05-13T08:42:51.999Z,37.69
2019-05-13T08:45:22.399Z,35.68
2019-05-13T08:47:51.335Z,36.00
2019-05-13T08:50:22.042Z,36.62
2019-05-13T08:52:51.236Z,35.94
2019-05-13T08:55:21.477Z,36.75
2019-05-13T08:57:52.212Z,36.16
2019-05-13T09:00:28.783Z,35.95
2019-05-13T09:02:57.200Z,36.32
2019-05-13T09:05:25.604Z,36.77
2019-05-13T09:07:54.738Z,36.43
2019-05-13T09:10:23.173Z,37.05
2019-05-13T09:12:52.239Z,37.25
2019-05-13T09:15:22.396Z,37.58
2019-05-13T09:17:51.709Z,36.72
2019-05-13T09:20:21.998Z,36.77
2019-05-13T09:22:51.466Z,36.63
2019-05-13T09:25:21.566Z,37.07
2019-05-13T09:27:51.323Z,36.96
2019-05-13T09:30:22.126Z,36.72
2019-05-13T09:32:51.393Z,36.71
2019-05-13T09:35:22.072Z,36.74
2019-05-13T09:37:51.608Z,36.87
2019-05-13T09:40:22.367Z,36.39
2019-05-13T09:42:54.453Z,36.34
2019-05-13T09:45:21.572Z,37.02
2019-05-13T09:47:52.413Z,36.87
2019-05-13T09:50:29.456Z,36.57
2019-05-13T09:52:51.735Z,36.17
2019-05-13T09:55:26.318Z,35.97
2019-05-13T09:57:52.536Z,35.17
2019-05-13T10:00:21.759Z,34.91
2019-05-13T10:02:51.624Z,34.76
2019-05-13T10:05:22.399Z,35.19
2019-05-13T10:07:50.243Z,35.33
2019-05-13T10:10:18.720Z,34.88
2019-05-13T10:13:07.046Z,35.57
2019-05-13T10:15:17.403Z,35.65
2019-05-13T10:17:45.786Z,34.87
2019-05-13T10:20:14.736Z,34.92
2019-05-13T10:22:43.214Z,34.85
2019-05-13T10:25:14.692Z,35.17
2019-05-13T10:27:43.397Z,35.85
2019-05-13T10:30:14.167Z,34.83
2019-05-13T10:32:42.863Z,33.82
2019-05-13T10:35:11.797Z,33.74
2019-05-13T10:37:41.791Z,33.48
2019-05-13T10:40:11.574Z,34.89
2019-05-13T10:42:40.056Z,35.09
2019-05-13T10:45:08.605Z,34.69
2019-05-13T10:47:37.009Z,35.45
2019-05-13T10:50:07.758Z,33.45
2019-05-13T10:52:36.157Z,33.82
2019-05-13T10:55:06.088Z,33.71
2019-05-13T10:57:34.563Z,34.36
2019-05-13T11:00:04.785Z,34.62
2019-05-13T11:02:33.164Z,34.51
2019-05-13T11:05:03.258Z,33.39
2019-05-13T11:07:32.201Z,32.99
2019-05-13T11:10:02.291Z,32.55
2019-05-13T11:12:33.364Z,32.18
2019-05-13T11:15:02.570Z,32.30
2019-05-13T11:17:33.027Z,32.42
2019-05-13T11:20:03.491Z,31.32
2019-05-13T11:22:32.724Z,31.50
2019-05-13T11:25:02.482Z,31.42
2019-05-13T11:27:32.401Z,31.67
2019-05-13T11:30:05.448Z,32.32
2019-05-13T11:32:31.731Z,32.68
2019-05-13T11:35:01.890Z,32.07
2019-05-13T11:37:32.096Z,32.78
2019-05-13T11:40:02.827Z,32.00
2019-05-13T11:42:32.735Z,31.74
2019-05-13T11:45:00.902Z,31.95
2019-05-13T11:47:31.807Z,32.03
2019-05-13T11:50:01.631Z,31.58
2019-05-13T11:52:31.559Z,31.36
2019-05-13T11:55:02.515Z,31.48
2019-05-13T11:57:31.620Z,31.92
2019-05-13T12:00:02.604Z,32.32
2019-05-13T12:02:32.656Z,32.69
2019-05-13T12:05:03.823Z,32.38
2019-05-13T12:07:32.910Z,32.90
2019-05-13T12:10:02.624Z,31.29
2019-05-13T12:12:34.277Z,31.36
2019-05-13T12:15:26.982Z,32.08
2019-05-13T12:17:33.978Z,31.90
2019-05-13T12:20:02.957Z,32.18
2019-05-13T12:22:31.100Z,31.49
2019-05-13T12:25:01.904Z,32.11
2019-05-13T12:27:31.769Z,32.03
2019-05-13T12:30:02.767Z,32.03
2019-05-13T12:32:32.238Z,30.94
2019-05-13T12:35:03.249Z,30.81
2019-05-13T12:37:30.153Z,30.20
2019-05-13T12:40:02.922Z,30.17
2019-05-13T12:42:33.286Z,30.26
2019-05-13T12:45:09.277Z,30.48
2019-05-13T12:47:30.560Z,30.98
2019-05-13T12:49:58.943Z,30.67
2019-05-13T12:52:27.347Z,29.79
2019-05-13T12:54:55.934Z,30.23
2019-05-13T12:57:24.328Z,30.51
2019-05-13T12:59:52.713Z,30.85
2019-05-13T13:02:22.611Z,29.98
2019-05-13T13:05:10.618Z,30.26
2019-05-13T13:07:21.682Z,30.18
2019-05-13T13:09:53.499Z,29.86
2019-05-13T13:12:33.244Z,30.33
2019-05-13T13:14:54.470Z,30.12
2019-05-13T13:17:24.176Z,30.22
2019-05-13T13:19:54.790Z,30.42
2019-05-13T13:22:25.343Z,30.80
2019-05-13T13:24:55.934Z,31.04
2019-05-13T13:27:46.466Z,30.71
2019-05-13T13:30:02.357Z,30.58
2019-05-13T13:32:24.569Z,30.73
2019-05-13T13:34:54.715Z,30.73
2019-05-13T13:37:22.737Z,30.35
2019-05-13T13:39:55.134Z,30.36
2019-05-13T13:42:21.415Z,30.66
2019-05-13T13:44:53.849Z,30.54
2019-05-13T13:47:23.996Z,30.33
2019-05-13T13:49:53.292Z,30.84
2019-05-13T13:52:22.593Z,30.66
2019-05-13T13:54:58.984Z,30.47
2019-05-13T13:57:25.273Z,30.81
2019-05-13T14:00:16.357Z,30.84
2019-05-13T14:02:25.098Z,30.31
2019-05-13T14:04:54.122Z,30.92
2019-05-13T14:07:31.242Z,31.33
2019-05-13T14:09:51.418Z,31.04
2019-05-13T14:12:21.996Z,31.21
2019-05-13T14:14:52.068Z,31.20
2019-05-13T14:17:22.001Z,31.59
2019-05-13T14:19:52.393Z,31.43
2019-05-13T14:22:21.698Z,31.70
2019-05-13T14:24:51.833Z,31.54
2019-05-13T14:27:22.408Z,30.85
2019-05-13T14:29:52.712Z,31.05
2019-05-13T14:32:22.439Z,31.39
2019-05-13T14:34:52.755Z,31.49
2019-05-13T14:37:22.378Z,31.12
2019-05-13T14:39:50.871Z,30.91
2019-05-13T14:42:19.276Z,31.36
2019-05-13T14:44:47.675Z,31.60
2019-05-13T14:47:16.973Z,30.89
2019-05-13T14:49:45.375Z,31.04
2019-05-13T14:52:13.793Z,30.92
2019-05-13T14:54:42.300Z,31.07
2019-05-13T14:57:14.323Z,31.29
2019-05-13T14:59:41.555Z,31.40
2019-05-13T15:02:11.947Z,31.28
2019-05-13T15:04:41.865Z,31.80
2019-05-13T15:07:12.115Z,31.49
2019-05-13T15:09:42.145Z,31.16
2019-05-13T15:12:10.484Z,31.43
2019-05-13T15:14:40.705Z,31.16
2019-05-13T15:17:09.032Z,31.51
2019-05-13T15:19:37.440Z,31.48
2019-05-13T15:22:06.204Z,31.52
2019-05-13T15:24:34.590Z,31.93
2019-05-13T15:27:02.998Z,31.99
2019-05-13T15:29:31.540Z,31.54
2019-05-13T15:32:02.027Z,31.99
2019-05-13T15:34:31.778Z,32.16
2019-05-13T15:37:01.985Z,32.21
2019-05-13T15:39:31.582Z,31.56
2019-05-13T15:42:02.028Z,31.60
2019-05-13T15:44:32.441Z,31.55
2019-05-13T15:47:03.907Z,31.39
2019-05-13T15:49:32.358Z,31.63
2019-05-13T15:52:01.878Z,31.77
2019-05-13T15:54:32.529Z,31.72
2019-05-13T15:57:02.388Z,32.36
2019-05-13T15:59:30.584Z,32.15
2019-05-13T16:02:01.325Z,31.52
2019-05-13T16:04:29.102Z,31.56
2019-05-13T16:06:57.495Z,31.27
2019-05-13T16:09:25.884Z,31.43
2019-05-13T16:11:54.268Z,31.51
2019-05-13T16:14:22.666Z,31.89
2019-05-13T16:16:51.050Z,31.75
2019-05-13T16:19:19.867Z,32.13
2019-05-13T16:21:51.657Z,31.99
2019-05-13T16:24:21.470Z,31.58
2019-05-13T16:26:52.156Z,31.70
2019-05-13T16:29:22.446Z,31.36
2019-05-13T16:31:51.886Z,31.10
2019-05-13T16:34:22.304Z,30.39
2019-05-13T16:36:53.047Z,31.22
2019-05-13T16:39:21.370Z,31.54
2019-05-13T16:41:51.675Z,31.70
2019-05-13T16:44:22.448Z,31.56
2019-05-13T16:46:51.254Z,31.78
2019-05-13T16:49:21.270Z,31.61
2019-05-13T16:51:51.793Z,31.54
2019-05-13T16:54:22.044Z,31.81
2019-05-13T16:56:51.818Z,31.73
2019-05-13T16:59:21.170Z,32.23
2019-05-13T17:01:51.218Z,32.67
2019-05-13T17:04:21.520Z,32.34
2019-05-13T17:06:50.039Z,32.46
2019-05-13T17:09:18.443Z,32.32
2019-05-13T17:11:46.831Z,32.55
2019-05-13T17:14:15.236Z,32.25
2019-05-13T17:16:43.651Z,32.23
2019-05-13T17:19:12.330Z,32.19
2019-05-13T17:21:41.222Z,32.27
2019-05-13T17:24:12.132Z,32.65
2019-05-13T17:26:41.822Z,32.45
2019-05-13T17:29:11.975Z,32.39
2019-05-13T17:31:41.652Z,32.51
2019-05-13T17:34:12.149Z,32.69
2019-05-13T17:36:41.929Z,32.34
2019-05-13T17:39:12.553Z,32.58
2019-05-13T17:41:41.541Z,32.56
2019-05-13T17:44:11.605Z,32.42
2019-05-13T17:46:41.884Z,32.78
2019-05-13T17:49:11.800Z,32.68
2019-05-13T17:51:42.591Z,33.07
2019-05-13T17:54:11.834Z,32.72
2019-05-13T17:56:40.425Z,32.98
2019-05-13T17:59:11.176Z,32.92
2019-05-13T18:01:41.098Z,32.88
2019-05-13T18:04:11.518Z,32.78
2019-05-13T18:06:41.539Z,32.80
2019-05-13T18:09:11.737Z,32.85
2019-05-13T18:11:41.562Z,32.62
2019-05-13T18:14:11.421Z,32.77
2019-05-13T18:16:43.631Z,32.88
2019-05-13T18:19:12.238Z,33.23
2019-05-13T18:21:42.375Z,33.41
2019-05-13T18:24:11.911Z,33.17
2019-05-13T18:26:41.967Z,33.38
2019-05-13T18:29:12.188Z,33.59
2019-05-13T18:31:42.032Z,33.61
2019-05-13T18:34:12.214Z,33.80
2019-05-13T18:36:42.671Z,33.93
2019-05-13T18:39:12.400Z,34.02
2019-05-13T18:41:41.373Z,33.84
2019-05-13T18:44:12.248Z,34.12
2019-05-13T18:46:41.705Z,33.94
2019-05-13T18:49:11.986Z,34.29
2019-05-13T18:51:42.235Z,34.58
2019-05-13T18:54:16.584Z,34.75
2019-05-13T18:56:46.592Z,34.76
2019-05-13T18:59:15.146Z,34.83
2019-05-13T19:01:43.546Z,34.81
2019-05-13T19:04:11.979Z,34.91
2019-05-13T19:06:42.404Z,34.88
2019-05-13T19:09:11.219Z,35.06
2019-05-13T19:11:42.416Z,35.25
2019-05-13T19:14:12.274Z,35.36
2019-05-13T19:16:42.227Z,35.54
2019-05-13T19:19:13.275Z,35.79
2019-05-13T19:21:41.615Z,35.91
2019-05-13T19:24:11.114Z,36.10
2019-05-13T19:26:41.635Z,36.17
2019-05-13T19:29:11.525Z,36.34
2019-05-13T19:31:41.797Z,36.61
2019-05-13T19:34:12.511Z,36.76
2019-05-13T19:36:40.431Z,36.96
2019-05-13T19:39:11.207Z,37.03
2019-05-13T19:41:38.960Z,37.32
2019-05-13T19:44:07.360Z,37.45
2019-05-13T19:46:35.750Z,37.59
2019-05-13T19:49:04.156Z,37.73
2019-05-13T19:51:32.556Z,37.91
2019-05-13T19:54:01.348Z,38.04
2019-05-13T19:56:31.783Z,38.18
2019-05-13T19:59:01.559Z,38.39
2019-05-13T20:01:32.187Z,38.53
2019-05-13T20:04:02.393Z,38.66
2019-05-13T20:06:35.753Z,38.64
2019-05-13T20:09:05.727Z,39.05
2019-05-13T20:11:34.133Z,39.26
2019-05-13T20:14:02.604Z,39.30
2019-05-13T20:16:32.099Z,39.54
2019-05-13T20:19:01.285Z,39.53
2019-05-13T20:21:31.957Z,39.72
2019-05-13T20:24:00.014Z,40.04
2019-05-13T20:26:28.411Z,39.98
2019-05-13T20:28:56.797Z,40.21
2019-05-13T20:31:25.189Z,40.33
2019-05-13T20:33:53.576Z,40.33
2019-05-13T20:36:22.367Z,40.55
2019-05-13T20:38:51.618Z,40.61
2019-05-13T20:41:22.209Z,40.80
2019-05-13T20:43:52.082Z,40.87
2019-05-13T20:46:22.951Z,40.98
2019-05-13T20:48:51.970Z,41.22
2019-05-13T20:51:21.965Z,41.21
2019-05-13T20:53:51.811Z,41.34
2019-05-13T20:56:21.475Z,41.39
2019-05-13T20:58:51.550Z,41.54
2019-05-13T21:01:20.034Z,41.35
2019-05-13T21:03:48.410Z,41.53
2019-05-13T21:06:16.810Z,41.57
2019-05-13T21:08:45.203Z,41.57
2019-05-13T21:11:13.589Z,41.78
2019-05-13T21:13:41.966Z,41.91
2019-05-13T21:16:11.425Z,41.92
2019-05-13T21:18:42.129Z,42.00
2019-05-13T21:21:11.708Z,42.28
2019-05-13T21:23:41.707Z,42.36
2019-05-13T21:26:13.159Z,42.50
2019-05-13T21:28:41.958Z,42.69
2019-05-13T21:31:11.358Z,42.84
2019-05-13T21:33:39.841Z,42.96
2019-05-13T21:36:08.267Z,43.06
2019-05-13T21:38:36.702Z,43.13
2019-05-13T21:41:05.101Z,43.34
2019-05-13T21:43:33.496Z,43.46
2019-05-13T21:46:02.274Z,43.45
2019-05-13T21:48:32.493Z,43.64
2019-05-13T21:51:01.099Z,43.94
2019-05-13T21:53:32.334Z,44.18
2019-05-13T21:56:02.112Z,44.12
2019-05-13T21:58:31.247Z,44.31
2019-05-13T22:01:01.563Z,44.79
2019-05-13T22:03:33.222Z,44.74
2019-05-13T22:06:01.931Z,44.79
2019-05-13T22:08:32.148Z,44.84
2019-05-13T22:11:01.762Z,44.94
2019-05-13T22:13:31.618Z,44.98
2019-05-13T22:16:01.708Z,45.22
2019-05-13T22:18:31.407Z,45.26
2019-05-13T22:21:01.636Z,45.28
2019-05-13T22:23:32.111Z,45.48
2019-05-13T22:26:01.571Z,45.63
2019-05-13T22:28:31.249Z,45.75
2019-05-13T22:31:01.361Z,46.04
2019-05-13T22:33:32.166Z,46.31
2019-05-13T22:36:01.623Z,46.18
2019-05-13T22:38:32.369Z,46.32
2019-05-13T22:41:01.238Z,46.52
2019-05-13T22:43:32.078Z,47.06
2019-05-13T22:45:59.881Z,46.92
2019-05-13T22:48:28.300Z,47.30
2019-05-13T22:50:56.679Z,47.55
2019-05-13T22:53:25.096Z,47.69
2019-05-13T22:55:53.504Z,47.63
2019-05-13T22:58:22.490Z,48.24
2019-05-13T23:00:51.751Z,48.63
2019-05-13T23:03:20.212Z,48.78
2019-05-13T23:05:48.593Z,49.08
2019-05-13T23:08:16.997Z,48.95
2019-05-13T23:10:45.411Z,49.07
2019-05-13T23:13:13.831Z,49.01
2019-05-13T23:15:42.243Z,49.61
2019-05-13T23:18:11.780Z,50.03
2019-05-13T23:20:41.009Z,49.57
2019-05-13T23:23:11.615Z,49.95
2019-05-13T23:25:40.923Z,50.10
2019-05-13T23:28:11.249Z,50.26
2019-05-13T23:30:41.609Z,50.86
2019-05-13T23:33:11.586Z,51.04
2019-05-13T23:35:41.772Z,51.49
2019-05-13T23:38:10.400Z,51.49
2019-05-13T23:40:38.815Z,51.36
2019-05-13T23:43:07.207Z,51.89
2019-05-13T23:45:35.633Z,51.76
2019-05-13T23:48:04.013Z,51.88
2019-05-13T23:50:32.409Z,52.19
2019-05-13T23:53:00.801Z,52.51
2019-05-13T23:55:29.206Z,52.68
2019-05-13T23:57:57.623Z,52.95
